Time;durP1;ratioP1;P1;durP2;ratioP2;P2;SDS_P1;SDS_P2;PMS_P1;PMS_P2;Temp;Humidity;BMP_temperature;BMP_pressure;BME280_temperature;BME280_humidity;BME280_pressure;Samples;Min_cycle;Max_cycle;Signal;HPM_P1;HPM_P2
2022/04/25 00:01:29;;;;;;;13.35;6.65;;;;;;;9.45;64.59;100836.06;5062607;28;20033;-60
2022/04/25 00:03:54;;;;;;;15.45;7.10;;;;;;;9.44;64.78;100829.09;5063464;28;20614;-60
2022/04/25 00:06:20;;;;;;;10.73;6.53;;;;;;;9.44;64.97;100829.94;5060608;28;20025;-60
2022/04/25 00:08:45;;;;;;;12.55;6.80;;;;;;;9.36;65.08;100837.88;5061127;28;20115;-60
2022/04/25 00:11:10;;;;;;;13.75;7.35;;;;;;;9.24;65.04;100825.91;5065113;28;20078;-60
2022/04/25 00:13:35;;;;;;;14.20;6.82;;;;;;;9.27;65.13;100837.03;5067582;28;20095;-60
2022/04/25 00:16:01;;;;;;;12.15;6.57;;;;;;;9.28;65.39;100840.50;5066311;28;20313;-60
2022/04/25 00:18:27;;;;;;;11.07;6.97;;;;;;;9.18;65.57;100837.16;5064071;28;20020;-60
2022/04/25 00:20:52;;;;;;;10.77;6.60;;;;;;;9.16;65.38;100837.31;5060740;28;20421;-60
2022/04/25 00:23:17;;;;;;;11.80;6.75;;;;;;;9.12;65.75;100835.97;5061210;28;20031;-60
2022/04/25 00:25:42;;;;;;;11.02;7.07;;;;;;;9.15;65.83;100845.44;5061687;28;20451;-59
2022/04/25 00:28:08;;;;;;;10.77;6.75;;;;;;;9.09;65.82;100846.91;5059784;28;20044;-60
2022/04/25 00:30:34;;;;;;;11.43;6.80;;;;;;;9.07;66.01;100840.13;5062929;28;20341;-60
2022/04/25 00:33:00;;;;;;;11.57;6.95;;;;;;;9.09;66.29;100843.44;5062277;28;20029;-60
2022/04/25 00:35:27;;;;;;;10.88;7.30;;;;;;;9.02;66.13;100837.94;5061686;28;20038;-59
2022/04/25 00:37:53;;;;;;;12.15;7.43;;;;;;;9.00;66.32;100840.75;5065406;28;20059;-60
2022/04/25 00:40:20;;;;;;;12.75;6.63;;;;;;;8.98;66.22;100847.22;5066766;28;20056;-60
2022/04/25 00:42:46;;;;;;;13.52;7.07;;;;;;;8.93;66.45;100839.72;5066185;28;20648;-60
2022/04/25 00:45:13;;;;;;;10.00;7.65;;;;;;;8.94;66.46;100848.50;5066851;28;20110;-60
2022/04/25 00:47:39;;;;;;;12.00;7.20;;;;;;;8.88;66.50;100842.03;5065571;28;20029;-60
2022/04/25 00:50:06;;;;;;;11.98;6.90;;;;;;;8.86;66.80;100841.34;5066831;28;20024;-59
2022/04/25 00:52:32;;;;;;;14.95;7.60;;;;;;;8.89;66.55;100848.97;5065958;28;20028;-59
2022/04/25 00:54:59;;;;;;;17.05;7.60;;;;;;;8.85;67.01;100850.28;5066261;28;20028;-60
2022/04/25 00:57:25;;;;;;;14.95;7.82;;;;;;;8.76;67.05;100845.13;5066494;28;20492;-60
2022/04/25 00:59:51;;;;;;;14.13;8.20;;;;;;;8.83;67.30;100840.84;5065303;28;20054;-60
2022/04/25 01:02:16;;;;;;;11.02;7.75;;;;;;;8.79;67.18;100842.97;5061514;28;20614;-59
2022/04/25 01:04:43;;;;;;;18.02;8.00;;;;;;;8.74;67.38;100841.81;5064151;28;20236;-60
2022/04/25 01:07:09;;;;;;;13.43;8.10;;;;;;;8.74;67.31;100841.81;5066648;28;20077;-60
2022/04/25 01:09:34;;;;;;;11.98;7.70;;;;;;;8.73;67.80;100845.44;5064490;28;20040;-60
2022/04/25 01:12:00;;;;;;;12.73;7.90;;;;;;;8.71;67.86;100842.13;5066400;28;20055;-60
2022/04/25 01:14:25;;;;;;;13.80;8.35;;;;;;;8.72;68.06;100847.25;5066043;28;20165;-60
2022/04/25 01:16:51;;;;;;;15.32;7.78;;;;;;;8.70;67.98;100838.66;5066420;28;20771;-60
2022/04/25 01:19:17;;;;;;;13.45;8.40;;;;;;;8.63;67.77;100834.94;5065346;28;20030;-59
2022/04/25 01:21:58;;;;;;;15.80;8.52;;;;;;;8.69;68.38;100851.06;5064650;28;20028;-59
2022/04/25 01:27:15;;;;;;;16.23;8.85;;;;;;;8.62;68.32;100839.41;5060384;28;20105;-59
2022/04/25 01:29:41;;;;;;;12.50;8.02;;;;;;;8.60;68.46;100840.56;5068350;28;20028;-60
2022/04/25 01:32:07;;;;;;;12.43;8.00;;;;;;;8.52;68.28;100844.00;5070146;28;20028;-59
2022/04/25 01:34:36;;;;;;;14.48;8.25;;;;;;;8.47;68.48;100840.19;5066758;28;20079;-60
2022/04/25 01:37:02;;;;;;;15.95;9.13;;;;;;;8.47;68.55;100850.75;5055641;28;20021;-60
2022/04/25 01:39:27;;;;;;;17.55;8.73;;;;;;;8.45;68.75;100845.63;5066315;28;20115;-60
2022/04/25 01:41:53;;;;;;;13.70;8.80;;;;;;;8.42;68.87;100842.47;5064853;28;20024;-60
2022/04/25 01:44:18;;;;;;;14.82;9.55;;;;;;;8.41;69.00;100851.38;5069240;28;20028;-60
2022/04/25 01:46:43;;;;;;;14.90;8.45;;;;;;;8.36;68.94;100847.38;5066880;28;20061;-60
2022/04/25 01:49:08;;;;;;;14.80;8.38;;;;;;;8.37;69.21;100842.91;5068901;28;20161;-59
2022/04/25 01:51:34;;;;;;;16.70;8.75;;;;;;;8.33;69.25;100846.81;5072820;28;20044;-60
2022/04/25 01:53:59;;;;;;;16.00;8.88;;;;;;;8.36;69.31;100849.19;5069633;28;20392;-59
2022/04/25 01:56:24;;;;;;;17.05;8.90;;;;;;;8.32;69.40;100847.81;5069159;28;20052;-60
2022/04/25 01:58:50;;;;;;;14.25;9.07;;;;;;;8.32;69.89;100851.28;5068456;28;20047;-59
2022/04/25 02:01:15;;;;;;;14.18;9.15;;;;;;;8.29;69.95;100853.41;5068740;28;20032;-60
2022/04/25 02:03:41;;;;;;;19.88;10.50;;;;;;;8.26;69.90;100849.25;5069493;28;20060;-60
2022/04/25 02:06:06;;;;;;;13.90;9.10;;;;;;;8.25;69.81;100852.91;5068900;28;20050;-59
2022/04/25 02:08:31;;;;;;;15.93;9.45;;;;;;;8.25;69.91;100846.78;5068569;28;20028;-59
2022/04/25 02:13:41;;;;;;;14.50;9.45;;;;;;;8.21;69.85;100851.56;5068747;28;20106;-59
2022/04/25 02:16:08;;;;;;;18.33;9.55;;;;;;;8.16;69.98;100848.56;5064657;28;20112;-60
2022/04/25 02:18:33;;;;;;;17.42;9.38;;;;;;;8.14;69.99;100842.59;5065869;28;20028;-60
2022/04/25 02:20:58;;;;;;;14.73;9.48;;;;;;;8.10;70.05;100841.25;5066412;28;20025;-60
2022/04/25 02:23:24;;;;;;;17.10;9.35;;;;;;;8.04;70.51;100834.72;5068151;28;20036;-60
2022/04/25 02:25:49;;;;;;;14.07;9.45;;;;;;;8.04;70.31;100841.81;5065794;28;20528;-60
2022/04/25 02:28:14;;;;;;;20.23;9.23;;;;;;;7.99;70.58;100839.66;5063459;28;20041;-60
2022/04/25 02:30:40;;;;;;;14.25;9.38;;;;;;;7.97;70.42;100840.78;5068574;28;20820;-59
2022/04/25 02:33:05;;;;;;;16.92;9.60;;;;;;;7.95;70.80;100834.81;5068642;28;20016;-60
2022/04/25 02:35:30;;;;;;;16.00;9.52;;;;;;;7.92;70.75;100837.78;5066891;28;20446;-59
2022/04/25 02:37:55;;;;;;;17.13;9.63;;;;;;;7.92;70.68;100843.91;5067582;28;20048;-59
2022/04/25 02:40:20;;;;;;;13.18;9.68;;;;;;;7.88;71.00;100841.72;5067743;28;20089;-59
2022/04/25 02:42:46;;;;;;;16.08;9.80;;;;;;;7.87;70.94;100840.06;5064859;28;20051;-60
2022/04/25 02:45:12;;;;;;;19.55;9.68;;;;;;;7.86;71.07;100836.59;5068516;28;20028;-59
2022/04/25 02:47:37;;;;;;;15.77;9.77;;;;;;;7.89;71.32;100838.09;5066905;28;20032;-60
2022/04/25 02:50:03;;;;;;;15.27;10.27;;;;;;;7.84;71.25;100835.09;5061836;28;20040;-60
2022/04/25 02:52:28;;;;;;;15.13;10.07;;;;;;;7.84;71.47;100835.09;5067708;28;20104;-60
2022/04/25 02:54:54;;;;;;;16.20;10.20;;;;;;;7.81;71.24;100835.38;5068834;28;20035;-59
2022/04/25 02:57:19;;;;;;;18.77;10.50;;;;;;;7.79;71.45;100830.22;5068042;28;20028;-59
2022/04/25 02:59:45;;;;;;;17.08;10.57;;;;;;;7.81;71.64;100830.94;5066060;28;20410;-60
2022/04/25 03:02:10;;;;;;;15.63;10.70;;;;;;;7.76;71.58;100830.53;5067901;28;20472;-59
2022/04/25 03:04:36;;;;;;;17.73;10.23;;;;;;;7.74;71.44;100833.34;5068183;28;20048;-59
2022/04/25 03:07:01;;;;;;;16.23;10.98;;;;;;;7.71;71.60;100828.34;5067554;28;20028;-59
2022/04/25 03:09:27;;;;;;;20.25;10.48;;;;;;;7.70;71.72;100823.22;5067580;28;20016;-60
2022/04/25 03:11:53;;;;;;;16.48;10.63;;;;;;;7.66;71.84;100819.22;5063344;28;20091;-60
2022/04/25 03:14:18;;;;;;;17.40;10.80;;;;;;;7.65;71.95;100830.78;5062603;28;20025;-60
2022/04/25 03:16:44;;;;;;;18.05;10.88;;;;;;;7.64;71.90;100831.75;5061887;28;20028;-60
2022/04/25 03:19:09;;;;;;;16.42;11.20;;;;;;;7.64;71.68;100835.25;5061705;28;20027;-59
2022/04/25 03:21:34;;;;;;;19.30;11.10;;;;;;;7.56;71.74;100831.69;5062119;28;20020;-60
2022/04/25 03:24:00;;;;;;;19.95;12.18;;;;;;;7.52;71.92;100833.81;5062074;28;20024;-60
2022/04/25 03:26:25;;;;;;;16.88;11.13;;;;;;;7.46;72.21;100829.94;5060713;28;20024;-60
2022/04/25 03:28:51;;;;;;;16.93;11.50;;;;;;;7.44;72.07;100828.44;5062406;28;20078;-60
2022/04/25 03:31:16;;;;;;;20.63;11.73;;;;;;;7.43;72.60;100830.25;5059741;28;20028;-60
2022/04/25 03:33:41;;;;;;;15.60;11.02;;;;;;;7.42;72.50;100831.22;5064924;28;20054;-60
2022/04/25 03:36:06;;;;;;;15.25;10.90;;;;;;;7.39;72.45;100834.16;5061670;28;20519;-60
2022/04/25 03:38:32;;;;;;;21.37;11.20;;;;;;;7.32;72.39;100841.03;5060778;28;20324;-59
2022/04/25 03:40:59;;;;;;;22.13;11.97;;;;;;;7.32;72.47;100848.13;5059504;28;20033;-60
2022/04/25 03:43:24;;;;;;;18.77;11.93;;;;;;;7.29;72.24;100848.44;5063572;28;20039;-59
2022/04/25 03:45:50;;;;;;;17.85;11.50;;;;;;;7.30;72.52;100844.81;5061363;28;20028;-58
2022/04/25 03:48:15;;;;;;;17.92;11.90;;;;;;;7.32;72.60;100848.97;5061368;28;20038;-60
2022/04/25 03:50:40;;;;;;;17.58;11.38;;;;;;;7.30;72.77;100852.75;5063952;28;20036;-60
2022/04/25 03:53:10;;;;;;;18.75;11.60;;;;;;;7.31;73.13;100855.22;5062008;28;20024;-58
2022/04/25 03:58:21;;;;;;;18.23;11.95;;;;;;;7.22;73.05;100849.97;5060433;28;20830;-59
2022/04/25 04:00:47;;;;;;;20.77;12.03;;;;;;;7.18;73.11;100851.25;5062201;28;20404;-59
2022/04/25 04:03:14;;;;;;;19.30;12.38;;;;;;;7.10;73.20;100852.84;5062355;28;20028;-60
2022/04/25 04:05:41;;;;;;;18.35;12.05;;;;;;;7.06;73.37;100856.75;5062707;28;20079;-59
2022/04/25 04:08:07;;;;;;;17.20;12.15;;;;;;;7.09;73.13;100863.56;5060725;28;20052;-59
2022/04/25 04:10:32;;;;;;;19.07;12.40;;;;;;;7.07;73.06;100861.06;5060931;28;20082;-59
2022/04/25 04:12:59;;;;;;;18.63;11.80;;;;;;;7.07;73.46;100862.88;5062443;28;20138;-60
2022/04/25 04:15:24;;;;;;;21.60;12.63;;;;;;;7.02;73.37;100863.31;5058087;28;20063;-59
2022/04/25 04:17:50;;;;;;;24.23;12.67;;;;;;;7.00;73.37;100865.28;5060557;28;20115;-58
2022/04/25 04:20:15;;;;;;;21.30;12.70;;;;;;;7.04;73.54;100873.72;5061715;28;20506;-59
2022/04/25 04:22:41;;;;;;;20.07;12.50;;;;;;;7.01;73.83;100872.22;5061104;28;20127;-60
2022/04/25 04:25:14;;;;;;;18.97;12.63;;;;;;;7.02;73.68;100875.69;5059973;28;20640;-59
2022/04/25 04:27:40;;;;;;;19.90;12.50;;;;;;;6.98;74.00;100872.50;5061842;28;20031;-60
2022/04/25 04:30:11;;;;;;;20.53;12.63;;;;;;;6.96;73.89;100879.75;5060690;28;20032;-60
2022/04/25 04:32:38;;;;;;;20.17;13.23;;;;;;;7.00;73.78;100881.13;5063170;28;20165;-60
2022/04/25 04:35:10;;;;;;;23.97;13.43;;;;;;;6.90;74.25;100871.56;5063017;28;20098;-60
2022/04/25 04:37:37;;;;;;;22.43;13.63;;;;;;;6.97;74.26;100880.59;5060095;28;20066;-59
2022/04/25 04:42:48;;;;;;;21.00;12.77;;;;;;;6.97;74.20;100883.22;5058069;28;20036;-59
2022/04/25 04:45:13;;;;;;;21.80;12.97;;;;;;;6.93;74.18;100885.28;5060944;28;20418;-59
2022/04/25 04:47:40;;;;;;;22.40;13.70;;;;;;;6.95;74.71;100895.75;5054943;28;20024;-60
2022/04/25 04:50:14;;;;;;;20.73;13.53;;;;;;;6.95;74.73;100888.66;5061709;28;20025;-59
2022/04/25 04:52:40;;;;;;;21.87;14.10;;;;;;;7.00;74.81;100885.56;5058762;28;20484;-59
2022/04/25 04:55:06;;;;;;;22.43;13.30;;;;;;;7.02;75.11;100889.72;5065090;28;20379;-59
2022/04/25 04:57:31;;;;;;;22.37;13.30;;;;;;;7.13;75.58;100893.97;5066093;28;20107;-60
2022/04/25 04:59:56;;;;;;;21.67;13.57;;;;;;;7.18;75.45;100901.44;5065260;28;20047;-60
2022/04/25 05:02:21;;;;;;;23.87;13.80;;;;;;;7.21;75.57;100893.22;5064002;28;20113;-59
2022/04/25 05:04:47;;;;;;;22.63;13.80;;;;;;;7.23;75.89;100900.06;5065294;28;20028;-60
2022/04/25 05:07:12;;;;;;;25.73;13.93;;;;;;;7.22;75.90;100889.59;5068924;28;20576;-60
2022/04/25 05:09:37;;;;;;;21.50;13.93;;;;;;;7.34;76.05;100902.47;5067544;28;20101;-59
2022/04/25 05:12:03;;;;;;;27.50;14.27;;;;;;;7.37;76.11;100904.81;5064152;28;20035;-59
2022/04/25 05:14:28;;;;;;;24.77;13.57;;;;;;;7.42;75.80;100907.00;5063996;28;20059;-60
2022/04/25 05:16:53;;;;;;;25.33;13.80;;;;;;;7.49;75.73;100912.53;5065387;28;20200;-59
2022/04/25 05:19:20;;;;;;;23.25;13.68;;;;;;;7.53;75.82;100912.09;5063725;28;20040;-59
2022/04/25 05:21:46;;;;;;;22.37;13.17;;;;;;;7.60;76.03;100910.53;5064859;28;20033;-59
2022/04/25 05:24:11;;;;;;;22.13;13.97;;;;;;;7.66;76.01;100914.38;5058995;28;20047;-60
2022/04/25 05:26:36;;;;;;;22.60;14.27;;;;;;;7.69;76.02;100922.84;5067222;28;20111;-60
2022/04/25 05:29:02;;;;;;;23.23;13.27;;;;;;;7.73;75.91;100926.00;5067209;28;20032;-60
2022/04/25 05:31:27;;;;;;;25.40;14.48;;;;;;;7.77;76.19;100924.72;5071245;28;21013;-60
2022/04/25 05:33:53;;;;;;;21.33;14.50;;;;;;;7.84;75.94;100935.53;5073365;28;20031;-60
2022/04/25 05:36:18;;;;;;;21.63;15.05;;;;;;;7.86;76.16;100930.94;5066803;28;20032;-60
2022/04/25 05:38:43;;;;;;;19.23;13.95;;;;;;;7.89;76.06;100928.81;5069358;28;20507;-59
2022/04/25 05:41:10;;;;;;;23.27;14.60;;;;;;;7.93;76.08;100930.19;5069879;28;20033;-58
2022/04/25 05:43:39;;;;;;;21.10;14.35;;;;;;;7.97;76.15;100938.63;5070368;28;20126;-60
2022/04/25 05:46:05;;;;;;;23.80;14.40;;;;;;;8.02;76.09;100953.06;5064202;28;20032;-60
2022/04/25 05:53:58;;;;;;;24.98;14.90;;;;;;;8.14;76.11;100943.09;5064032;28;20128;-60
2022/04/25 05:56:24;;;;;;;28.80;15.30;;;;;;;8.19;76.04;100954.06;5067763;28;20556;-59
2022/04/25 05:58:49;;;;;;;23.05;14.93;;;;;;;8.25;76.16;100957.91;5068661;28;20035;-59
2022/04/25 06:01:14;;;;;;;21.02;15.52;;;;;;;8.28;76.58;100957.59;5064681;28;20472;-59
2022/04/25 13:14:39;;;;;;;53.55;37.00;;;;;;;11.91;72.87;101235.16;5107409;27;20234;-68
2022/04/25 13:17:06;;;;;;;31.45;21.80;;;;;;;11.92;72.20;101232.34;5063457;28;20100;-68
2022/04/25 13:19:32;;;;;;;37.72;27.88;;;;;;;11.93;71.90;101231.34;5063933;28;20487;-68
2022/04/25 13:21:57;;;;;;;40.13;27.48;;;;;;;11.94;71.64;101235.66;5061940;28;20059;-68
2022/04/25 13:24:22;;;;;;;34.10;24.15;;;;;;;11.91;71.05;101235.16;5066390;28;20692;-69
2022/04/25 13:26:48;;;;;;;28.95;19.55;;;;;;;11.85;70.73;101225.16;5061659;28;20052;-68
2022/04/25 13:29:14;;;;;;;28.52;20.75;;;;;;;11.79;70.33;101235.50;5061437;28;20063;-68
2022/04/25 13:31:39;;;;;;;32.95;21.80;;;;;;;11.78;70.43;101235.66;5062505;28;20035;-68
2022/04/25 13:34:04;;;;;;;31.80;21.33;;;;;;;11.75;70.47;101239.47;5061356;28;20108;-68
2022/04/25 13:36:30;;;;;;;52.42;31.83;;;;;;;11.66;70.12;101242.31;5061262;28;20497;-67
2022/04/25 13:38:55;;;;;;;60.72;37.28;;;;;;;11.58;70.34;101242.31;5063751;28;20021;-68
2022/04/25 13:41:20;;;;;;;83.95;45.75;;;;;;;11.44;70.45;101241.97;5064128;28;20024;-67
2022/04/25 13:43:49;;;;;;;35.58;24.73;;;;;;;11.31;70.71;101246.16;5061222;28;20499;-67
2022/04/25 13:46:15;;;;;;;35.03;22.92;;;;;;;11.14;70.94;101240.81;5063618;28;20037;-68
2022/04/25 13:48:40;;;;;;;38.03;24.38;;;;;;;11.11;71.13;101240.31;5064414;28;20094;-67
2022/04/25 13:51:07;;;;;;;37.20;24.08;;;;;;;11.02;71.29;101243.94;5063493;28;20097;-68
2022/04/25 13:53:34;;;;;;;35.78;23.48;;;;;;;10.97;72.00;101251.56;5057932;28;20397;-68
2022/04/25 13:56:02;;;;;;;35.20;24.40;;;;;;;10.80;71.89;101227.63;5063247;28;20021;-68
2022/04/25 13:58:28;;;;;;;35.33;24.02;;;;;;;10.85;72.31;101245.72;5063061;28;20040;-68
2022/04/25 14:00:53;;;;;;;32.80;23.35;;;;;;;10.83;72.43;101248.56;5062525;28;20476;-67
2022/04/25 14:03:18;;;;;;;32.22;22.70;;;;;;;10.79;72.45;101241.91;5061865;28;20110;-67
2022/04/25 14:05:46;;;;;;;34.08;23.73;;;;;;;10.77;72.20;101251.84;5063742;28;20109;-67
2022/04/25 14:08:13;;;;;;;35.65;25.42;;;;;;;10.79;72.61;101247.22;5062043;28;20033;-67
2022/04/25 14:10:41;;;;;;;31.80;21.77;;;;;;;10.79;72.53;101247.22;5063056;28;20039;-67
2022/04/25 14:13:10;;;;;;;33.97;23.57;;;;;;;10.82;72.82;101254.84;5061462;28;20021;-67
2022/04/25 14:15:37;;;;;;;31.73;22.83;;;;;;;10.85;72.86;101249.22;5050027;28;20279;-67
2022/04/25 14:18:03;;;;;;;32.92;22.63;;;;;;;10.91;72.69;101255.69;5046354;28;20483;-67
2022/04/25 14:20:30;;;;;;;31.30;22.48;;;;;;;10.95;72.89;101253.53;5045706;28;20036;-68
2022/04/25 14:23:00;;;;;;;32.25;23.02;;;;;;;10.94;72.71;101244.75;5045720;28;20448;-68
2022/04/25 14:25:26;;;;;;;35.47;24.45;;;;;;;10.99;72.76;101252.25;5047683;28;20097;-67
2022/04/25 14:27:52;;;;;;;31.60;22.90;;;;;;;11.04;72.67;101245.44;5049242;28;20072;-68
2022/04/25 14:30:17;;;;;;;32.33;23.73;;;;;;;11.10;72.42;101249.28;5048679;28;20434;-67
2022/04/25 14:32:42;;;;;;;30.52;22.10;;;;;;;11.15;72.55;101247.78;5049294;28;20048;-67
2022/04/25 14:35:08;;;;;;;29.98;22.40;;;;;;;11.15;72.67;101236.31;5049985;28;20029;-67
2022/04/25 14:37:33;;;;;;;28.55;20.67;;;;;;;11.28;72.22;101246.47;5046705;28;20026;-67
2022/04/25 14:39:59;;;;;;;30.20;21.10;;;;;;;11.27;72.01;101250.09;5048854;28;20060;-67
2022/04/25 14:42:24;;;;;;;29.25;20.08;;;;;;;11.20;71.36;101249.94;5047910;28;20029;-67
2022/04/25 14:44:49;;;;;;;28.33;19.30;;;;;;;11.11;71.08;101253.59;5052882;28;20098;-66
2022/04/25 14:47:14;;;;;;;26.88;19.52;;;;;;;11.01;70.95;101253.75;5047401;28;20051;-67
2022/04/25 14:55:08;;;;;;;28.50;19.42;;;;;;;10.90;71.46;101254.03;5044750;28;20079;-67
2022/04/25 14:57:34;;;;;;;26.15;19.17;;;;;;;10.87;71.53;101254.38;5044085;28;20049;-67
2022/04/25 14:59:59;;;;;;;30.63;19.45;;;;;;;10.84;71.19;101258.19;5048052;28;20032;-67
2022/04/25 15:02:24;;;;;;;26.90;18.75;;;;;;;10.89;71.43;101262.19;5040956;28;20026;-67
2022/04/25 15:04:50;;;;;;;29.60;19.13;;;;;;;10.85;71.64;101264.31;5045220;28;20044;-67
2022/04/25 15:07:16;;;;;;;29.50;19.25;;;;;;;10.85;71.52;101269.63;5048503;28;20041;-67
2022/04/25 15:09:44;;;;;;;30.70;19.38;;;;;;;10.84;71.85;101273.28;5048563;28;20023;-67
2022/04/25 15:12:10;;;;;;;28.33;19.02;;;;;;;10.83;71.98;101279.59;5045222;28;20032;-67
2022/04/25 15:14:35;;;;;;;31.17;19.15;;;;;;;10.79;71.79;101273.78;5045985;28;20029;-67
2022/04/25 15:17:00;;;;;;;25.42;18.55;;;;;;;10.77;72.15;101274.94;5048171;28;20024;-67
2022/04/25 15:19:28;;;;;;;26.52;18.45;;;;;;;10.73;72.40;101271.78;5046799;28;20032;-67
2022/04/25 15:21:53;;;;;;;28.27;19.33;;;;;;;10.70;72.75;101276.59;5043695;28;21012;-67
2022/04/25 15:24:18;;;;;;;27.83;19.65;;;;;;;10.73;72.67;101284.22;5043076;28;20060;-68
2022/04/25 15:26:44;;;;;;;28.40;19.65;;;;;;;10.74;72.90;101286.72;5046012;28;20057;-67
2022/04/25 15:29:09;;;;;;;27.05;19.33;;;;;;;10.72;72.57;101280.75;5048952;28;20082;-68
2022/04/25 15:31:34;;;;;;;31.33;19.58;;;;;;;10.74;72.53;101285.88;5045195;28;20049;-68
2022/04/25 15:33:59;;;;;;;28.42;19.35;;;;;;;10.72;72.84;101282.56;5048859;28;20053;-67
2022/04/25 15:36:25;;;;;;;32.97;21.77;;;;;;;10.74;72.61;101291.19;5045370;28;20151;-68
2022/04/25 15:38:52;;;;;;;24.45;18.42;;;;;;;10.68;72.71;101292.66;5042927;28;20097;-68
2022/04/25 15:41:17;;;;;;;33.85;18.80;;;;;;;10.64;72.46;101293.97;5046820;28;20497;-67
2022/04/25 15:43:42;;;;;;;27.88;19.13;;;;;;;10.59;72.42;101290.97;5045848;28;20033;-67
2022/04/25 15:46:08;;;;;;;26.75;19.60;;;;;;;10.49;72.68;101283.13;5047503;28;20055;-67
2022/04/25 15:48:33;;;;;;;28.08;18.83;;;;;;;10.55;72.90;101286.97;5045784;28;20029;-68
2022/04/25 15:50:59;;;;;;;31.00;18.98;;;;;;;10.54;73.10;101295.91;5046479;28;20047;-68
2022/04/25 15:57:43;;;;;;;29.55;19.00;;;;;;;10.52;73.45;101292.59;5044996;28;20029;-67
2022/04/25 15:58:53;;;;;;;28.95;18.75;;;;;;;10.61;73.36;101301.41;5047373;28;20099;-67
2022/04/25 16:01:18;;;;;;;29.55;19.40;;;;;;;10.62;73.47;101300.44;5046397;28;20496;-68
2022/04/25 16:03:44;;;;;;;30.38;19.38;;;;;;;10.60;72.89;101300.59;5040321;28;20070;-67
2022/04/25 16:06:09;;;;;;;26.77;19.23;;;;;;;10.62;73.09;101300.44;5045331;28;20024;-68
2022/04/25 16:08:34;;;;;;;30.75;19.35;;;;;;;10.57;73.08;101292.94;5048930;28;20033;-68
2022/04/25 16:11:01;;;;;;;31.83;19.55;;;;;;;10.65;73.09;101295.63;5049828;28;20033;-68
2022/04/25 16:13:26;;;;;;;31.40;19.35;;;;;;;10.66;73.13;101299.13;5044229;28;20017;-68
2022/04/25 16:15:53;;;;;;;29.20;20.13;;;;;;;10.71;73.23;101302.16;5046683;28;20039;-67
2022/04/25 16:18:20;;;;;;;27.63;18.08;;;;;;;10.73;73.03;101294.84;5047235;28;20028;-67
2022/04/25 16:20:45;;;;;;;25.50;17.45;;;;;;;10.74;73.08;101307.13;5047875;28;20074;-68
2022/04/25 16:23:13;;;;;;;29.13;18.77;;;;;;;10.78;72.52;101304.00;5045125;28;20131;-68
2022/04/25 16:25:39;;;;;;;29.52;20.77;;;;;;;10.84;72.52;101295.38;5044285;28;20510;-68
2022/04/25 16:28:04;;;;;;;28.73;18.17;;;;;;;10.90;72.48;101293.91;5047645;28;20472;-68
2022/04/25 16:30:31;;;;;;;27.70;17.92;;;;;;;10.90;72.33;101293.06;5047219;28;20501;-67
2022/04/25 16:32:56;;;;;;;25.50;17.90;;;;;;;10.90;72.00;101299.22;5046245;28;20027;-68
2022/04/25 16:35:24;;;;;;;26.30;17.55;;;;;;;10.89;72.00;101294.06;5047524;28;20529;-68
2022/04/25 16:37:52;;;;;;;25.35;17.77;;;;;;;10.84;71.72;101291.88;5046659;28;20031;-68
2022/04/25 16:40:18;;;;;;;28.60;18.08;;;;;;;10.84;71.90;101303.34;5047545;28;20481;-68
2022/04/25 16:42:44;;;;;;;26.00;17.40;;;;;;;10.80;71.72;101306.50;5046709;28;20119;-67
2022/04/25 16:45:09;;;;;;;25.15;17.70;;;;;;;10.70;71.37;101293.34;5045601;28;20108;-68
2022/04/25 16:47:35;;;;;;;25.58;17.38;;;;;;;10.66;71.47;101297.28;5045628;28;20120;-68
2022/04/25 16:50:00;;;;;;;25.30;16.98;;;;;;;10.66;71.58;101296.47;5047890;28;20029;-68
2022/04/25 16:52:25;;;;;;;32.00;21.75;;;;;;;10.66;71.78;101301.78;5045514;28;20025;-68
2022/04/25 16:54:51;;;;;;;39.65;24.38;;;;;;;10.64;71.93;101290.47;5043479;28;20403;-69
2022/04/25 16:57:16;;;;;;;31.90;22.27;;;;;;;10.62;71.75;101293.28;5043920;28;20147;-69
2022/04/25 16:59:42;;;;;;;27.30;18.05;;;;;;;10.61;72.02;101298.78;5043019;28;20027;-69
2022/04/25 17:02:07;;;;;;;27.45;18.58;;;;;;;10.60;72.13;101300.59;5041446;28;20238;-68
2022/04/25 17:04:33;;;;;;;29.88;18.45;;;;;;;10.59;72.14;101293.63;5043111;28;20037;-68
2022/04/25 17:06:59;;;;;;;26.88;18.05;;;;;;;10.59;72.50;101295.44;5041414;28;20653;-69
2022/04/25 17:09:25;;;;;;;26.27;18.52;;;;;;;10.60;72.58;101297.09;5046191;28;20025;-69
2022/04/25 17:11:51;;;;;;;26.75;18.35;;;;;;;10.61;72.73;101302.25;5042877;28;20017;-68
2022/04/25 17:14:16;;;;;;;30.13;19.02;;;;;;;10.58;72.62;101297.25;5041937;28;20019;-69
2022/04/25 17:16:41;;;;;;;29.38;19.48;;;;;;;10.57;72.91;101305.41;5040876;28;20196;-68
2022/04/25 17:19:07;;;;;;;33.47;21.08;;;;;;;10.62;72.80;101311.88;5046623;28;20025;-68
2022/04/25 17:21:32;;;;;;;34.20;21.20;;;;;;;10.63;73.03;101313.56;5045984;28;20075;-69
2022/04/25 17:23:58;;;;;;;30.63;22.35;;;;;;;10.63;73.17;101318.03;5045878;28;20078;-69
2022/04/25 17:26:23;;;;;;;33.53;22.27;;;;;;;10.64;73.22;101309.06;5044597;28;20029;-69
2022/04/25 17:28:48;;;;;;;34.97;23.67;;;;;;;10.60;73.11;101299.75;5046437;28;20382;-69
2022/04/25 17:37:20;;;;;;;36.00;24.38;;;;;;;10.75;72.94;101306.97;5041770;28;20681;-69
